Time;durP1;ratioP1;P1;durP2;ratioP2;P2;SDS_P1;SDS_P2;PMS_P1;PMS_P2;Temp;Humidity;BMP_temperature;BMP_pressure;BME280_temperature;BME280_humidity;BME280_pressure;Samples;Min_cycle;Max_cycle;Signal;HPM_P1;HPM_P2
2023/08/28 00:02:00;;;;;;;3.30;2.40;;;;;;;18.33;77.17;101261.84;5033466;28;20413;-45
2023/08/28 00:04:25;;;;;;;3.80;2.20;;;;;;;18.35;77.27;101260.09;5032759;28;20499;-49
2023/08/28 00:06:51;;;;;;;4.13;2.50;;;;;;;18.37;77.51;101259.16;5032283;28;20045;-46
2023/08/28 00:09:17;;;;;;;3.70;2.20;;;;;;;18.40;77.32;101256.50;5038950;28;20063;-44
2023/08/28 00:11:42;;;;;;;4.05;2.50;;;;;;;18.38;77.44;101255.63;5038686;28;20555;-44
2023/08/28 00:14:08;;;;;;;6.20;2.17;;;;;;;18.37;77.52;101263.56;5039511;28;20033;-47
2023/08/28 00:16:33;;;;;;;3.47;2.00;;;;;;;18.40;77.08;101258.25;5039422;28;20030;-45
2023/08/28 00:18:58;;;;;;;2.80;1.98;;;;;;;18.42;77.11;101251.19;5042074;28;20419;-43
2023/08/28 00:21:23;;;;;;;3.22;1.90;;;;;;;18.37;76.87;101250.34;5035187;28;20036;-47
2023/08/28 00:23:49;;;;;;;3.97;2.20;;;;;;;18.31;76.93;101248.66;5031588;28;20041;-43
2023/08/28 00:26:14;;;;;;;2.50;2.03;;;;;;;18.26;76.79;101247.84;5030627;28;20044;-48
2023/08/28 00:28:39;;;;;;;2.10;1.73;;;;;;;18.19;76.56;101247.06;5031447;28;20033;-44
2023/08/28 00:31:05;;;;;;;3.47;1.73;;;;;;;18.14;76.52;101251.53;5032091;28;20040;-44
2023/08/28 00:33:30;;;;;;;3.90;1.90;;;;;;;18.11;76.54;101251.53;5031588;28;20041;-49
2023/08/28 00:35:56;;;;;;;2.03;1.60;;;;;;;18.06;76.76;101248.09;5031530;28;20466;-45
2023/08/28 00:38:21;;;;;;;2.78;1.70;;;;;;;18.04;76.71;101256.94;5031566;28;20053;-49
2023/08/28 00:40:46;;;;;;;6.05;2.00;;;;;;;18.00;76.71;101257.81;5031164;28;20132;-42
2023/08/28 00:43:12;;;;;;;2.92;1.60;;;;;;;17.96;76.54;101261.41;5031475;28;20063;-44
2023/08/28 00:45:41;;;;;;;3.10;1.80;;;;;;;17.93;76.67;101264.94;5030927;28;20467;-45
2023/08/28 00:48:09;;;;;;;2.85;1.90;;;;;;;17.91;77.04;101260.59;5031937;28;20036;-47
2023/08/28 00:50:34;;;;;;;4.13;1.70;;;;;;;17.92;77.05;101257.06;5031358;28;20072;-44
2023/08/28 00:53:00;;;;;;;2.45;1.80;;;;;;;17.89;77.15;101252.69;5032698;28;20040;-44
2023/08/28 00:55:27;;;;;;;3.92;1.80;;;;;;;17.87;76.98;101249.16;5033642;28;20029;-44
2023/08/28 00:57:52;;;;;;;3.58;1.73;;;;;;;17.86;76.92;101246.56;5034167;28;20040;-43
2023/08/28 01:00:18;;;;;;;3.38;1.70;;;;;;;17.83;77.15;101244.84;5031939;28;20037;-52
2023/08/28 01:02:43;;;;;;;3.97;2.10;;;;;;;17.72;78.07;101252.84;5030673;28;20102;-45
2023/08/28 01:05:10;;;;;;;2.53;1.73;;;;;;;17.76;77.33;101238.75;5030549;28;20034;-46
2023/08/28 01:07:58;;;;;;;2.50;1.70;;;;;;;17.76;77.25;101235.22;5030677;28;20389;-44
2023/08/28 01:10:51;;;;;;;2.60;1.60;;;;;;;17.74;77.12;101237.91;5030669;28;20052;-46
2023/08/28 01:13:37;;;;;;;2.72;1.40;;;;;;;17.74;76.95;101242.31;5030478;28;20499;-44
2023/08/28 01:16:04;;;;;;;4.00;1.70;;;;;;;17.74;77.01;101245.81;5030434;28;20036;-44
2023/08/28 01:18:30;;;;;;;3.03;1.80;;;;;;;17.71;77.18;101247.59;5030356;28;20037;-43
2023/08/28 01:20:57;;;;;;;3.35;1.77;;;;;;;17.68;77.31;101250.28;5031073;28;20044;-44
2023/08/28 01:23:34;;;;;;;2.42;1.80;;;;;;;17.67;77.25;101252.03;5030073;28;20041;-45
2023/08/28 01:26:00;;;;;;;2.47;1.88;;;;;;;17.64;77.08;101246.78;5030168;28;20044;-43
2023/08/28 01:28:25;;;;;;;3.45;2.00;;;;;;;17.62;77.14;101247.69;5030279;28;20038;-45
2023/08/28 01:30:53;;;;;;;2.17;1.83;;;;;;;17.60;77.43;101241.53;5030532;28;20053;-44
2023/08/28 01:33:18;;;;;;;3.45;1.80;;;;;;;17.58;77.14;101238.88;5030857;28;20026;-47
2023/08/28 01:35:51;;;;;;;2.55;2.00;;;;;;;17.58;77.12;101243.28;5029948;28;20102;-45
2023/08/28 01:38:17;;;;;;;3.53;1.80;;;;;;;17.54;77.09;101245.09;5030673;28;20034;-46
2023/08/28 01:40:52;;;;;;;3.60;1.67;;;;;;;17.55;77.21;101238.94;5030327;28;20041;-43
2023/08/28 01:43:22;;;;;;;2.67;1.90;;;;;;;17.50;77.32;101230.19;5030469;28;20136;-45
2023/08/28 01:45:49;;;;;;;3.70;1.80;;;;;;;17.49;77.25;101231.09;5029441;28;20033;-46
2023/08/28 01:48:15;;;;;;;2.85;1.70;;;;;;;17.48;77.21;101228.47;5030228;28;20056;-45
2023/08/28 01:50:40;;;;;;;2.33;1.77;;;;;;;17.44;77.42;101228.47;5029534;28;20115;-43
2023/08/28 01:53:05;;;;;;;2.45;1.70;;;;;;;17.43;77.13;101232.03;5030348;28;20034;-43
2023/08/28 01:55:54;;;;;;;4.82;1.92;;;;;;;17.41;77.40;101225.88;5029249;28;20048;-44
2023/08/28 01:58:19;;;;;;;3.03;1.90;;;;;;;17.40;77.79;101228.50;5029634;28;20124;-42
2023/08/28 02:00:45;;;;;;;2.33;1.83;;;;;;;17.44;77.44;101230.25;5028463;28;20168;-46
2023/08/28 02:03:10;;;;;;;3.15;1.98;;;;;;;17.39;77.65;101232.03;5029942;28;20551;-44
2023/08/28 02:05:36;;;;;;;4.45;1.90;;;;;;;17.36;77.37;101232.09;5029535;28;20068;-45
2023/08/28 02:08:02;;;;;;;2.88;1.90;;;;;;;17.32;77.51;101236.47;5029985;28;20411;-44
2023/08/28 02:10:27;;;;;;;3.33;2.00;;;;;;;17.32;77.45;101240.91;5030544;28;20045;-49
2023/08/28 02:12:52;;;;;;;2.40;1.83;;;;;;;17.29;77.48;101239.16;5031405;28;20523;-45
2023/08/28 02:15:19;;;;;;;4.43;2.17;;;;;;;17.26;78.62;101244.44;5031065;28;20038;-44
2023/08/28 02:17:44;;;;;;;4.50;1.90;;;;;;;17.36;78.63;101250.53;5030941;28;20513;-43
2023/08/28 02:20:10;;;;;;;3.30;2.25;;;;;;;17.34;79.24;101249.66;5030738;28;20033;-46
2023/08/28 02:22:35;;;;;;;3.50;2.00;;;;;;;17.43;79.40;101246.97;5030978;28;20523;-43
2023/08/28 02:25:01;;;;;;;3.72;2.20;;;;;;;17.52;78.46;101244.22;5030863;28;20092;-46
2023/08/28 02:27:27;;;;;;;2.90;1.90;;;;;;;17.56;78.27;101237.19;5030555;28;20044;-47
2023/08/28 02:29:52;;;;;;;2.88;1.90;;;;;;;17.59;78.64;101234.50;5031487;28;20041;-48
2023/08/28 02:32:17;;;;;;;4.32;2.20;;;;;;;17.60;79.11;101225.69;5031479;28;20057;-45
2023/08/28 02:34:43;;;;;;;4.05;2.20;;;;;;;17.78;78.63;101215.88;5029791;28;20424;-45
2023/08/28 02:37:08;;;;;;;4.72;2.00;;;;;;;17.82;78.57;101214.94;5029551;28;20064;-47
2023/08/28 02:39:33;;;;;;;3.88;2.13;;;;;;;17.76;78.94;101207.09;5029345;28;20398;-44
2023/08/28 02:41:59;;;;;;;5.15;1.90;;;;;;;17.75;78.81;101204.47;5030169;28;20060;-44
2023/08/28 02:44:24;;;;;;;3.63;1.88;;;;;;;17.69;78.97;101194.00;5029847;28;20132;-43
2023/08/28 02:46:49;;;;;;;2.60;1.83;;;;;;;17.67;78.56;101194.03;5030117;28;20489;-44
2023/08/28 02:49:15;;;;;;;3.05;1.90;;;;;;;17.66;78.69;101199.31;5032779;28;20088;-49
2023/08/28 02:51:40;;;;;;;4.80;2.00;;;;;;;17.66;78.70;101202.81;5036708;28;20049;-43
2023/08/28 02:54:05;;;;;;;3.38;1.75;;;;;;;17.65;78.78;101200.19;5037262;28;20511;-44
2023/08/28 02:56:38;;;;;;;2.20;1.80;;;;;;;17.65;78.53;101202.81;5034325;28;20535;-47
2023/08/28 02:59:04;;;;;;;3.63;2.00;;;;;;;17.61;78.79;101199.38;5036145;28;20492;-48
2023/08/28 03:01:34;;;;;;;2.92;1.83;;;;;;;17.59;78.64;101194.94;5035516;28;20112;-44
2023/08/28 03:04:04;;;;;;;2.35;1.85;;;;;;;17.58;78.73;101196.72;5035843;28;20657;-43
2023/08/28 03:06:38;;;;;;;2.22;1.90;;;;;;;17.54;78.67;101184.47;5035249;28;20099;-45
2023/08/28 03:09:04;;;;;;;3.08;1.92;;;;;;;17.57;78.53;101199.34;5036233;28;20033;-45
2023/08/28 03:11:30;;;;;;;3.65;2.00;;;;;;;17.56;78.66;101189.72;5035775;28;20037;-45
2023/08/28 03:13:55;;;;;;;3.42;1.85;;;;;;;17.55;78.88;101186.22;5035603;28;20650;-44
2023/08/28 03:16:21;;;;;;;3.38;1.90;;;;;;;17.55;79.31;101191.47;5035538;28;20098;-48
2023/08/28 03:18:46;;;;;;;2.63;1.90;;;;;;;17.58;79.76;101195.84;5035723;28;20373;-44
2023/08/28 03:21:12;;;;;;;2.38;1.80;;;;;;;17.63;79.86;101199.31;5036060;28;20064;-44
2023/08/28 03:23:37;;;;;;;5.68;2.10;;;;;;;17.56;80.40;101210.81;5035095;28;20029;-44
2023/08/28 03:26:03;;;;;;;3.20;1.90;;;;;;;17.61;80.20;101219.56;5035397;28;20474;-48
2023/08/28 03:28:29;;;;;;;2.67;1.80;;;;;;;17.76;79.54;101215.00;5035412;28;20279;-46
2023/08/28 03:30:59;;;;;;;2.67;1.80;;;;;;;17.77;79.17;101214.13;5035532;28;20029;-42
2023/08/28 03:33:25;;;;;;;3.20;1.70;;;;;;;17.72;79.61;101217.69;5035101;28;20514;-43
2023/08/28 03:35:50;;;;;;;3.67;1.92;;;;;;;17.71;79.98;101227.38;5034894;28;20500;-44
2023/08/28 03:38:16;;;;;;;2.83;1.90;;;;;;;17.83;79.43;101232.53;5035710;28;20041;-47
2023/08/28 03:40:43;;;;;;;3.80;2.30;;;;;;;17.83;79.64;101235.16;5034969;28;20057;-49
2023/08/28 03:43:09;;;;;;;3.72;2.30;;;;;;;17.86;80.01;101241.31;5035678;28;20480;-42
2023/08/28 03:45:34;;;;;;;3.63;2.08;;;;;;;17.97;79.83;101237.66;5034980;28;20116;-46
2023/08/28 03:48:00;;;;;;;2.85;1.80;;;;;;;18.06;79.08;101242.81;5035727;28;20518;-48
2023/08/28 03:50:28;;;;;;;3.10;1.80;;;;;;;18.05;78.69;101237.56;5035231;28;20086;-44
2023/08/28 03:52:55;;;;;;;3.42;1.80;;;;;;;18.01;78.29;101249.03;5036115;28;20057;-48
2023/08/28 03:55:20;;;;;;;1.92;1.55;;;;;;;17.96;78.14;101241.19;5035305;28;20090;-46
2023/08/28 03:57:45;;;;;;;2.92;1.80;;;;;;;17.88;78.10;101239.50;5035454;28;20112;-42
2023/08/28 04:00:13;;;;;;;2.53;1.60;;;;;;;17.85;77.95;101240.44;5034618;28;20107;-44
2023/08/28 04:02:39;;;;;;;3.33;1.88;;;;;;;17.76;78.00;101238.75;5032290;28;20049;-45
2023/08/28 04:05:06;;;;;;;3.13;1.90;;;;;;;17.71;77.82;101252.88;5032603;28;20407;-45
2023/08/28 04:07:32;;;;;;;3.00;1.85;;;;;;;17.68;77.54;101253.78;5031233;28;20037;-44
2023/08/28 04:09:58;;;;;;;2.83;1.73;;;;;;;17.64;77.37;101254.69;5033139;28;20055;-46
2023/08/28 04:12:23;;;;;;;3.55;1.90;;;;;;;17.61;77.47;101260.00;5032195;28;20045;-46
2023/08/28 04:14:48;;;;;;;2.47;1.77;;;;;;;17.55;77.60;101265.31;5032280;28;20041;-45
2023/08/28 04:17:14;;;;;;;3.42;1.75;;;;;;;17.57;77.61;101263.50;5032062;28;20518;-53
2023/08/28 04:19:40;;;;;;;2.90;1.80;;;;;;;17.58;77.48;101264.38;5032085;28;20038;-44
2023/08/28 04:22:05;;;;;;;2.60;1.80;;;;;;;17.58;77.71;101264.38;5032723;28;20454;-50
2023/08/28 04:24:31;;;;;;;2.80;1.95;;;;;;;17.57;78.09;101267.91;5032291;28;20228;-44
2023/08/28 04:26:56;;;;;;;10.13;7.55;;;;;;;17.49;78.22;101270.63;5031837;28;20124;-46
2023/08/28 04:29:21;;;;;;;6.78;4.95;;;;;;;17.51;78.47;101276.75;5032124;28;20068;-44
2023/08/28 04:31:47;;;;;;;4.45;2.90;;;;;;;17.53;78.63;101280.25;5031511;28;20029;-46
2023/08/28 04:34:13;;;;;;;4.75;2.67;;;;;;;17.59;78.75;101281.94;5031644;28;20037;-48
2023/08/28 04:36:38;;;;;;;3.35;2.63;;;;;;;17.62;79.14;101287.25;5030924;28;20500;-42
2023/08/28 04:39:04;;;;;;;4.13;3.00;;;;;;;17.59;79.70;101282.81;5031818;28;20037;-46
2023/08/28 04:41:29;;;;;;;4.90;2.90;;;;;;;17.67;79.50;101288.94;5031306;28;20033;-43
2023/08/28 04:43:54;;;;;;;4.10;2.80;;;;;;;17.72;79.65;101281.00;5031510;28;20048;-52
2023/08/28 04:46:20;;;;;;;4.80;2.70;;;;;;;17.76;79.47;101286.22;5030933;28;20041;-43
2023/08/28 04:48:45;;;;;;;5.85;2.90;;;;;;;17.82;79.50;101280.88;5031090;28;20037;-46
2023/08/28 04:51:10;;;;;;;5.85;3.40;;;;;;;17.93;79.33;101288.69;5031438;28;20125;-44
2023/08/28 04:53:36;;;;;;;5.18;2.70;;;;;;;18.02;79.31;101293.88;5030960;28;20053;-43
2023/08/28 04:56:01;;;;;;;4.28;2.45;;;;;;;18.11;79.17;101304.31;5030816;28;20128;-46
2023/08/28 04:58:26;;;;;;;3.85;2.67;;;;;;;18.03;79.42;101314.09;5033094;28;20033;-42
2023/08/28 05:00:52;;;;;;;5.13;2.67;;;;;;;18.14;79.14;101320.13;5033044;28;20522;-44
2023/08/28 05:03:17;;;;;;;6.95;2.60;;;;;;;18.03;79.58;101326.41;5032638;28;20040;-44
2023/08/28 05:05:43;;;;;;;5.90;2.25;;;;;;;18.13;79.83;101326.28;5030107;28;20026;-45
2023/08/28 05:08:08;;;;;;;4.05;2.40;;;;;;;18.19;79.60;101323.59;5031353;28;20124;-44
2023/08/28 05:10:33;;;;;;;4.78;2.40;;;;;;;18.18;79.93;101320.97;5030702;28;20404;-43
2023/08/28 05:12:59;;;;;;;6.35;2.55;;;;;;;17.96;80.75;101330.88;5030668;28;20094;-45
2023/08/28 05:15:25;;;;;;;5.88;2.70;;;;;;;18.01;81.26;101334.34;5029988;28;20029;-45
2023/08/28 05:17:50;;;;;;;5.18;2.55;;;;;;;18.21;80.48;101336.78;5031148;28;20045;-48
2023/08/28 05:20:15;;;;;;;4.43;2.75;;;;;;;18.30;80.09;101334.03;5031071;28;20120;-43
2023/08/28 05:22:41;;;;;;;4.45;2.90;;;;;;;18.22;80.29;101335.88;5029193;28;20081;-43
2023/08/28 05:25:06;;;;;;;4.25;2.83;;;;;;;18.25;80.70;101328.81;5030256;28;20372;-43
2023/08/28 05:27:32;;;;;;;6.70;3.08;;;;;;;18.35;80.30;101320.78;5030785;28;20049;-42
2023/08/28 05:29:59;;;;;;;4.28;2.58;;;;;;;18.42;80.24;101317.19;5031205;28;20037;-47
2023/08/28 05:32:24;;;;;;;4.43;2.60;;;;;;;18.46;80.20;101314.50;5030306;28;20030;-45
2023/08/28 05:34:49;;;;;;;5.32;2.80;;;;;;;18.48;80.27;101315.31;5031610;28;20038;-44
2023/08/28 05:37:15;;;;;;;3.88;2.75;;;;;;;18.50;80.43;101318.84;5031140;28;20043;-45
2023/08/28 05:39:40;;;;;;;5.15;2.90;;;;;;;18.54;80.17;101319.69;5030932;28;20170;-44
2023/08/28 05:42:05;;;;;;;5.70;3.00;;;;;;;18.54;80.38;101312.63;5030831;28;20065;-47
2023/08/28 05:44:31;;;;;;;4.82;2.85;;;;;;;18.58;80.34;101314.38;5030491;28;20096;-44
2023/08/28 05:46:56;;;;;;;4.78;3.00;;;;;;;18.50;80.89;101316.19;5031401;28;20033;-42
2023/08/28 05:49:21;;;;;;;5.65;2.97;;;;;;;18.53;81.15;101316.16;5031438;28;20057;-49
2023/08/28 05:51:47;;;;;;;7.32;3.30;;;;;;;18.55;81.43;101314.41;5031093;28;20061;-45
2023/08/28 05:54:12;;;;;;;4.85;3.00;;;;;;;18.71;80.99;101312.47;5030472;28;20400;-46
2023/08/28 05:56:37;;;;;;;7.13;3.05;;;;;;;18.79;80.87;101305.28;5029728;28;20156;-45
2023/08/28 05:59:03;;;;;;;4.80;3.13;;;;;;;18.75;81.18;101308.88;5031646;28;20040;-43
2023/08/28 06:01:28;;;;;;;7.35;3.00;;;;;;;18.75;81.38;101306.22;5031122;28;20539;-48
2023/08/28 06:03:56;;;;;;;5.70;3.10;;;;;;;18.78;81.53;101300.91;5031381;28;20587;-42
2023/08/28 06:06:23;;;;;;;4.90;2.80;;;;;;;18.95;81.31;101303.31;5030639;28;20121;-43
2023/08/28 06:08:48;;;;;;;5.47;3.00;;;;;;;19.05;81.30;101303.16;5029882;28;20029;-45
2023/08/28 06:11:14;;;;;;;4.68;3.05;;;;;;;19.11;81.20;101302.19;5026824;28;20131;-46
2023/08/28 06:13:39;;;;;;;6.05;3.15;;;;;;;19.05;81.17;101305.81;5029399;28;20060;-46
2023/08/28 06:16:04;;;;;;;4.88;2.95;;;;;;;19.07;81.20;101307.56;5029307;28;20144;-43
2023/08/28 06:18:30;;;;;;;7.00;3.20;;;;;;;19.03;81.46;101310.22;5029353;28;20037;-45
2023/08/28 06:20:55;;;;;;;7.80;3.30;;;;;;;19.05;81.58;101308.44;5029773;28;20483;-47
2023/08/28 06:23:21;;;;;;;4.78;3.40;;;;;;;18.98;81.83;101311.19;5029339;28;20224;-44
2023/08/28 06:25:47;;;;;;;7.13;4.10;;;;;;;18.91;82.48;101310.41;5028513;28;20068;-45
2023/08/28 06:28:13;;;;;;;6.22;3.22;;;;;;;18.93;82.33;101316.53;5029652;28;20034;-44
2023/08/28 06:30:39;;;;;;;7.57;3.60;;;;;;;18.94;82.28;101310.38;5029123;28;20076;-44
2023/08/28 06:33:04;;;;;;;4.43;3.20;;;;;;;19.19;81.55;101313.53;5029403;28;20064;-49
2023/08/28 06:35:31;;;;;;;4.75;3.20;;;;;;;19.33;81.41;101311.53;5028510;28;20116;-44
2023/08/28 06:37:57;;;;;;;5.97;3.05;;;;;;;19.42;81.25;101313.16;5028657;28;20026;-45
2023/08/28 06:40:22;;;;;;;5.28;3.13;;;;;;;19.53;81.32;101313.91;5028109;28;20095;-50
2023/08/28 06:42:48;;;;;;;4.30;3.20;;;;;;;19.65;81.62;101320.75;5029641;28;20040;-45
2023/08/28 06:45:13;;;;;;;5.43;3.30;;;;;;;19.80;81.53;101324.03;5029372;28;20037;-45
2023/08/28 06:47:38;;;;;;;5.88;3.60;;;;;;;20.32;82.73;101322.16;5027758;28;20113;-45
2023/08/28 06:50:04;;;;;;;6.70;3.50;;;;;;;21.20;79.79;101330.97;5029777;28;20057;-46
2023/08/28 06:52:30;;;;;;;6.10;3.20;;;;;;;21.53;75.70;101316.88;5029503;28;20044;-43
2023/08/28 06:54:55;;;;;;;6.72;3.55;;;;;;;21.54;73.62;101315.97;5029734;28;20125;-45
2023/08/28 06:57:20;;;;;;;4.55;3.20;;;;;;;21.39;73.63;101322.53;5029342;28;20377;-44
2023/08/28 06:59:46;;;;;;;4.97;3.00;;;;;;;21.56;73.24;101329.22;5029566;28;20515;-43
2023/08/28 07:02:11;;;;;;;4.88;3.53;;;;;;;21.60;73.10;101320.25;5030229;28;20042;-44
2023/08/28 07:04:37;;;;;;;12.85;3.30;;;;;;;21.57;73.26;101323.88;5029160;28;20037;-42
2023/08/28 07:07:02;;;;;;;4.63;3.00;;;;;;;21.72;72.92;101323.47;5029705;28;20727;-44
2023/08/28 07:09:27;;;;;;;4.55;3.00;;;;;;;21.98;72.42;101332.59;5029226;28;20049;-44
2023/08/28 07:11:53;;;;;;;5.35;3.05;;;;;;;22.02;71.83;101331.56;5028958;28;20088;-44
2023/08/28 07:14:18;;;;;;;5.45;3.17;;;;;;;21.80;71.88;101320.63;5029464;28;20045;-43
2023/08/28 07:16:43;;;;;;;4.60;3.20;;;;;;;22.18;71.58;101324.97;5027093;28;20560;-47
2023/08/28 07:19:09;;;;;;;5.25;3.05;;;;;;;22.62;69.43;101329.91;5027467;28;20554;-45
2023/08/28 07:21:34;;;;;;;3.78;2.78;;;;;;;23.51;67.30;101327.19;5026907;28;20041;-44
2023/08/28 07:23:59;;;;;;;5.25;2.88;;;;;;;24.43;63.18;101324.00;5028275;28;20167;-42
2023/08/28 07:26:25;;;;;;;4.07;2.20;;;;;;;25.14;58.47;101331.06;5027896;28;20044;-46
2023/08/28 07:28:50;;;;;;;5.03;1.90;;;;;;;25.74;53.96;101325.03;5028489;28;20068;-47
2023/08/28 07:31:15;;;;;;;2.70;1.80;;;;;;;26.20;52.28;101323.06;5028714;28;20535;-43
2023/08/28 07:33:41;;;;;;;2.38;1.73;;;;;;;25.19;56.00;101331.72;5028200;28;20407;-47
2023/08/28 07:36:07;;;;;;;4.40;1.50;;;;;;;25.09;56.56;101333.03;5030878;28;20040;-50
2023/08/28 07:38:32;;;;;;;3.35;1.30;;;;;;;26.31;50.55;101325.28;5031491;28;20087;-48
2023/08/28 07:40:58;;;;;;;2.13;1.20;;;;;;;26.94;50.57;101326.84;5021508;28;20034;-45
2023/08/28 07:43:23;;;;;;;2.13;1.40;;;;;;;27.40;50.66;101330.84;5031588;28;20120;-47
2023/08/28 07:45:48;;;;;;;1.42;0.88;;;;;;;28.73;44.67;101330.22;5031186;28;20029;-44
2023/08/28 07:48:14;;;;;;;2.13;0.90;;;;;;;28.94;43.56;101331.72;5032146;28;20029;-43
2023/08/28 07:50:45;;;;;;;2.58;1.02;;;;;;;28.41;45.39;101329.25;5031263;28;20168;-46
2023/08/28 07:53:10;;;;;;;2.13;1.00;;;;;;;26.62;49.60;101337.19;5032376;28;20029;-46
2023/08/28 07:55:37;;;;;;;3.28;1.30;;;;;;;25.76;51.77;101333.88;5031266;28;20096;-46
2023/08/28 07:58:04;;;;;;;2.97;1.10;;;;;;;25.21;53.36;101345.91;5032228;28;20144;-46
2023/08/28 08:00:34;;;;;;;3.13;1.40;;;;;;;25.09;53.95;101343.72;5023641;28;20073;-43
2023/08/28 08:03:00;;;;;;;2.92;1.17;;;;;;;23.70;60.46;101336.31;5023308;28;20041;-48
2023/08/28 08:05:25;;;;;;;2.65;1.10;;;;;;;23.00;62.46;101339.41;5021635;28;20092;-47
2023/08/28 08:07:50;;;;;;;1.95;1.30;;;;;;;22.66;63.86;101350.16;5020708;28;20510;-42
2023/08/28 08:10:16;;;;;;;2.08;1.30;;;;;;;22.52;66.21;101356.75;4996075;28;20043;-48
2023/08/28 08:12:41;;;;;;;4.75;1.40;;;;;;;22.44;67.11;101349.03;4992634;28;20039;-43
2023/08/28 08:15:07;;;;;;;3.42;1.25;;;;;;;22.16;67.52;101351.56;4992438;28;20061;-44
2023/08/28 08:17:35;;;;;;;1.92;1.10;;;;;;;22.10;67.81;101350.84;4992418;28;20042;-42
2023/08/28 08:20:00;;;;;;;3.22;1.25;;;;;;;22.09;69.51;101357.94;5011117;28;20075;-43
2023/08/28 08:22:26;;;;;;;1.73;1.23;;;;;;;21.98;69.47;101354.69;5049654;28;20064;-45
2023/08/28 08:24:51;;;;;;;1.95;1.17;;;;;;;21.96;69.64;101358.28;5030341;28;20038;-46
2023/08/28 08:27:17;;;;;;;3.08;1.27;;;;;;;22.08;69.50;101363.31;5030205;28;20038;-47
2023/08/28 08:29:43;;;;;;;2.45;1.20;;;;;;;21.99;69.06;101356.44;5027699;28;20046;-41
2023/08/28 08:32:08;;;;;;;1.98;1.20;;;;;;;21.54;69.31;101368.16;5026519;28;20037;-45
2023/08/28 08:34:33;;;;;;;1.88;1.20;;;;;;;21.54;70.21;101366.38;5030835;28;20049;-45
2023/08/28 08:36:59;;;;;;;2.97;1.40;;;;;;;21.76;69.36;101364.09;5029891;28;20049;-45
2023/08/28 08:39:24;;;;;;;2.55;1.27;;;;;;;22.12;68.80;101359.66;5031319;28;20044;-47
2023/08/28 08:41:50;;;;;;;3.40;1.58;;;;;;;22.14;65.78;101357.84;5031351;28;20507;-49
2023/08/28 08:44:15;;;;;;;2.67;1.20;;;;;;;21.50;64.60;101367.38;5031209;28;20107;-41
2023/08/28 08:46:42;;;;;;;1.92;0.90;;;;;;;22.25;61.07;101358.41;5030036;28;20034;-43
2023/08/28 08:49:12;;;;;;;1.52;1.00;;;;;;;22.53;62.54;101351.41;5031511;28;20599;-47
2023/08/28 08:51:42;;;;;;;2.05;1.20;;;;;;;22.11;65.81;101357.91;5030562;28;20079;-46
2023/08/28 08:54:14;;;;;;;2.67;1.17;;;;;;;22.33;64.32;101359.06;5030767;28;20041;-47
2023/08/28 08:56:41;;;;;;;1.92;1.17;;;;;;;22.44;62.55;101357.00;5030631;28;20079;-46
2023/08/28 08:59:08;;;;;;;3.17;1.00;;;;;;;21.97;64.21;101358.25;5031264;28;20034;-46
2023/08/28 09:01:37;;;;;;;2.83;1.20;;;;;;;22.72;61.70;101357.09;5030353;28;20029;-44
2023/08/28 09:04:03;;;;;;;2.42;1.10;;;;;;;22.71;59.00;101351.78;5031749;28;20045;-44
2023/08/28 09:06:32;;;;;;;1.25;0.90;;;;;;;23.20;58.83;101353.88;5030392;28;20102;-41
2023/08/28 09:08:58;;;;;;;3.13;0.90;;;;;;;23.57;58.64;101345.63;5031821;28;20041;-43
2023/08/28 09:11:23;;;;;;;4.22;0.98;;;;;;;23.80;58.18;101348.41;5030104;28;20069;-45
2023/08/28 09:13:49;;;;;;;1.80;0.93;;;;;;;23.78;58.46;101347.59;5031572;28;20064;-43
2023/08/28 09:16:17;;;;;;;3.50;0.85;;;;;;;23.44;54.86;101340.69;5030394;28;20033;-44
2023/08/28 09:18:43;;;;;;;2.92;1.23;;;;;;;24.20;56.66;101342.63;5030319;28;20037;-42
2023/08/28 09:21:09;;;;;;;3.05;1.38;;;;;;;23.44;58.89;101353.09;5031088;28;20159;-44
2023/08/28 09:23:42;;;;;;;2.90;1.00;;;;;;;22.67;60.93;101354.56;5030012;28;20128;-42
2023/08/28 09:26:07;;;;;;;2.13;1.08;;;;;;;23.27;59.94;101355.44;5029685;28;20407;-46
2023/08/28 09:28:33;;;;;;;2.92;0.90;;;;;;;23.36;60.62;101357.81;5030322;28;20034;-44
2023/08/28 09:30:58;;;;;;;2.75;1.13;;;;;;;22.88;58.28;101352.19;5030347;28;20041;-43
2023/08/28 09:33:23;;;;;;;2.10;0.93;;;;;;;23.06;57.67;101352.50;5029888;28;20064;-45
2023/08/28 09:35:49;;;;;;;3.13;1.20;;;;;;;22.76;58.13;101353.44;5029703;28;20041;-44
2023/08/28 09:38:14;;;;;;;2.97;1.05;;;;;;;22.73;58.22;101357.97;5030596;28;20037;-44
2023/08/28 09:40:41;;;;;;;2.38;1.10;;;;;;;22.97;58.78;101362.56;5029808;28;20052;-44
2023/08/28 09:43:16;;;;;;;3.35;1.20;;;;;;;22.86;58.55;101373.53;5030087;28;20116;-44
2023/08/28 09:45:43;;;;;;;2.70;1.00;;;;;;;22.95;58.81;101356.41;5029631;28;20044;-42
2023/08/28 09:48:10;;;;;;;1.77;1.08;;;;;;;23.26;58.98;101359.88;5030091;28;20090;-46
2023/08/28 09:50:40;;;;;;;1.80;1.10;;;;;;;23.68;58.95;101362.13;5029357;28;20500;-45
2023/08/28 09:53:06;;;;;;;2.55;1.00;;;;;;;24.32;57.72;101355.50;5030309;28;20112;-45
2023/08/28 09:55:32;;;;;;;1.48;0.80;;;;;;;24.40;54.51;101357.84;5029074;28;20041;-43
2023/08/28 09:57:57;;;;;;;1.27;0.75;;;;;;;24.48;52.31;101358.47;5029639;28;20087;-45
2023/08/28 10:00:23;;;;;;;1.15;0.80;;;;;;;23.93;54.62;101360.38;5028841;28;20044;-47
2023/08/28 10:02:50;;;;;;;1.60;0.90;;;;;;;23.93;55.79;101359.50;5030050;28;20033;-43
2023/08/28 10:05:17;;;;;;;2.65;1.00;;;;;;;23.48;57.66;101353.94;5029196;28;20127;-48
2023/08/28 10:07:46;;;;;;;2.33;0.95;;;;;;;23.12;59.96;101362.09;5029190;28;20070;-44
2023/08/28 10:10:15;;;;;;;1.73;0.90;;;;;;;22.96;57.47;101356.38;5030064;28;20693;-42
2023/08/28 10:12:44;;;;;;;3.25;1.00;;;;;;;22.39;62.89;101364.19;5029145;28;20044;-43
2023/08/28 10:15:11;;;;;;;2.58;1.10;;;;;;;22.43;62.74;101355.25;5029092;28;20104;-45
2023/08/28 10:17:38;;;;;;;3.55;1.00;;;;;;;23.23;61.56;101359.13;5029685;28;20037;-42
2023/08/28 10:20:09;;;;;;;1.75;0.95;;;;;;;23.92;59.37;101344.44;5029420;28;20034;-43
2023/08/28 10:22:36;;;;;;;2.67;1.00;;;;;;;24.32;57.37;101350.16;5028878;28;20037;-42
2023/08/28 10:25:01;;;;;;;2.50;1.00;;;;;;;23.97;57.39;101356.69;5028952;28;20099;-49
2023/08/28 10:27:27;;;;;;;2.47;0.80;;;;;;;23.62;54.56;101360.53;5029124;28;20593;-46
2023/08/28 10:29:53;;;;;;;1.55;0.80;;;;;;;23.52;57.50;101361.75;5029372;28;20518;-45
2023/08/28 10:32:20;;;;;;;2.60;0.82;;;;;;;23.73;56.98;101358.38;5029370;28;20087;-48
2023/08/28 10:34:46;;;;;;;2.00;0.90;;;;;;;23.99;56.15;101348.63;5028914;28;20448;-46
2023/08/28 10:37:15;;;;;;;2.88;0.98;;;;;;;23.63;54.17;101359.63;5029024;28;20069;-43
2023/08/28 10:39:42;;;;;;;2.97;1.05;;;;;;;23.30;57.11;101356.19;5028690;28;20597;-43
2023/08/28 10:42:15;;;;;;;1.92;0.90;;;;;;;23.73;58.25;101361.03;5029459;28;20065;-47
2023/08/28 10:44:41;;;;;;;2.65;1.00;;;;;;;23.29;58.60;101350.94;5029082;28;20097;-42
2023/08/28 10:47:07;;;;;;;4.35;0.90;;;;;;;23.32;58.14;101359.69;5029219;28;20037;-43
2023/08/28 10:49:34;;;;;;;2.20;1.00;;;;;;;23.30;58.07;101366.84;5029371;28;20510;-45
2023/08/28 10:52:02;;;;;;;2.80;0.90;;;;;;;23.38;56.46;101370.16;5029823;28;20494;-43
2023/08/28 10:54:37;;;;;;;1.67;0.80;;;;;;;23.49;53.58;101366.28;5029096;28;20129;-45
2023/08/28 10:57:05;;;;;;;1.80;0.77;;;;;;;23.10;54.91;101365.75;5029399;28;20511;-46
2023/08/28 10:59:42;;;;;;;3.63;0.80;;;;;;;23.28;54.34;101371.34;5029815;28;20037;-45
2023/08/28 11:02:09;;;;;;;2.25;0.88;;;;;;;23.83;52.67;101361.63;5029596;28;20598;-45
2023/08/28 11:04:36;;;;;;;1.77;0.70;;;;;;;23.65;54.53;101367.56;5029182;28;20451;-46
2023/08/28 11:07:02;;;;;;;3.05;0.93;;;;;;;24.33;51.25;101367.91;5029235;28;20041;-44
2023/08/28 11:09:28;;;;;;;2.65;0.88;;;;;;;24.45;52.10;101363.91;5030310;28;20389;-43
2023/08/28 11:11:59;;;;;;;1.40;0.75;;;;;;;24.18;53.36;101371.97;5034165;28;20076;-44
2023/08/28 11:14:38;;;;;;;1.33;0.70;;;;;;;24.61;52.58;101365.97;5035499;28;20543;-44
2023/08/28 11:17:10;;;;;;;2.10;0.80;;;;;;;24.83;48.61;101368.69;5035670;28;20037;-45
2023/08/28 11:19:53;;;;;;;3.38;0.88;;;;;;;24.76;49.08;101369.00;5033651;28;20041;-48
2023/08/28 11:22:41;;;;;;;0.95;0.70;;;;;;;24.01;53.45;101366.31;5033438;28;20578;-45